Flight Track Log - Related Links

Times and Time Zones

All times are in EDT time to prevent confusion due to time zone crossing. See the TAM3741 flight status page for this flight to view local times or setup timezone preferences in your user account.

Time Position Orientation Groundspeed Altitude Reporting Facility
EDT Latitude Longitude Course Direction KTS MPH feet Rate Location/Type
Sun 06:02:11 AM -3.0390 -60.0300 357° North 162 186 900  Level FlightAware ADS-B
Sun 06:02:31 AM -3.0390 -60.0140 90° East 177 204 1,400 1,313 Climbing FlightAware ADS-B
Sun 06:02:43 AM -3.0400 -60.0050 96° East 189 217 1,600 1,000 Climbing FlightAware ADS-B
Sun 06:03:07 AM -3.0400 -59.9820 90° East 219 252 2,000 1,227 Climbing FlightAware ADS-B
Sun 06:03:27 AM -3.0390 -59.9590 88° East 250 288 2,500 1,688 Climbing FlightAware ADS-B
Sun 06:03:39 AM -3.0370 -59.9450 82° East 258 297 2,900 2,833 Climbing FlightAware ADS-B
Sun 06:04:03 AM -3.0330 -59.9180 82° East 255 293 4,200 3,143 Climbing FlightAware ADS-B
Sun 06:04:21 AM -3.0290 -59.8960 80° East 257 296 5,100 2,842 Climbing FlightAware ADS-B
Sun 06:04:41 AM -3.0250 -59.8720 81° East 262 302 6,000 2,591 Climbing FlightAware ADS-B
Sun 06:05:05 AM -3.0210 -59.8430 82° East 267 307 7,000 2,591 Climbing FlightAware ADS-B
Sun 06:05:25 AM -3.0180 -59.8190 83° East 271 312 7,900 2,550 Climbing FlightAware ADS-B
Sun 06:05:45 AM -3.0140 -59.7930 81° East 277 319 8,700 2,429 Climbing FlightAware ADS-B
Sun 06:06:07 AM -3.0100 -59.7640 82° East 281 323 9,600 1,966 Climbing FlightAware ADS-B
Sun 06:06:43 AM -3.0030 -59.7170 82° East 306 352 10,600 1,714 Climbing FlightAware ADS-B
Sun 06:07:17 AM -2.9960 -59.6670 82° East 327 376 11,600 2,789 Climbing FlightAware ADS-B
Sun 06:07:54 AM -2.9880 -59.6150 81° East 299 344 13,900 3,652 Climbing FlightAware ADS-B
Sun 06:08:26 AM -2.9820 -59.5720 82° East 272 313 15,800 2,471 Climbing FlightAware ADS-B
Sun 06:09:02 AM -2.9760 -59.5260 83° East 286 329 16,700 917 Climbing FlightAware ADS-B
Sun 06:09:38 AM -2.9680 -59.4760 81° East 328 377 16,900 468 Climbing FlightAware ADS-B
Sun 06:10:19 AM -2.9590 -59.4110 82° East 363 418 17,300 788 Climbing FlightAware ADS-B
Sun 06:11:17 AM -2.9460 -59.3280 81° East 350 403 18,200 574 Climbing FlightAware ADS-B
Sun 06:11:53 AM -2.9390 -59.2790 82° East 350 403 18,200  Level FlightAware ADS-B
Sun 06:12:29 AM -2.9310 -59.2300 81° East 350 403 18,200  Level FlightAware ADS-B
Sun 06:13:05 AM -2.9230 -59.1810 81° East 350 403 18,200  Level FlightAware ADS-B
Sun 06:13:41 AM -2.9150 -59.1320 81° East 350 403 18,200  Level FlightAware ADS-B
Sun 06:14:17 AM -2.9080 -59.0830 82° East 350 403 18,200  Level FlightAware ADS-B
Sun 06:16:00 AM -2.8798 -58.8821 82° East  Level Estimated
Sun 06:17:00 AM -2.8634 -58.7651 82° East  Level Estimated
Sun 06:18:00 AM -2.8476 -58.6527 82° East  Level Estimated
Sun 06:19:00 AM -2.8318 -58.5402 82° East  Level Estimated
Sun 06:20:00 AM -2.8160 -58.4278 82° East  Level Estimated
Sun 06:21:00 AM -2.8002 -58.3154 82° East  Level Estimated
Sun 06:22:00 AM -2.7844 -58.2029 82° East  Level Estimated
Sun 06:23:00 AM -2.7685 -58.0905 82° East  Level Estimated
Sun 06:24:00 AM -2.7527 -57.9781 82° East  Level Estimated
Sun 06:25:00 AM -2.7368 -57.8656 82° East  Level Estimated
Sun 06:26:00 AM -2.7209 -57.7532 82° East  Level Estimated
Sun 06:27:00 AM -2.7050 -57.6408 82° East  Level Estimated
Sun 06:28:00 AM -2.6891 -57.5284 82° East  Level Estimated
Sun 06:29:00 AM -2.6732 -57.4159 82° East  Level Estimated
Sun 06:30:00 AM -2.6573 -57.3035 82° East  Level Estimated
Sun 06:31:00 AM -2.6414 -57.1911 82° East  Level Estimated
Sun 06:32:00 AM -2.6254 -57.0787 82° East  Level Estimated
Sun 06:33:00 AM -2.6095 -56.9663 82° East  Level Estimated
Sun 06:34:00 AM -2.5935 -56.8539 82° East  Level Estimated
Sun 06:35:00 AM -2.5775 -56.7415 82° East  Level Estimated
Sun 06:36:00 AM -2.5615 -56.6291 82° East  Level Estimated
Sun 06:37:00 AM -2.5456 -56.5167 82° East  Level Estimated
Sun 06:38:00 AM -2.5296 -56.4043 82° East  Level Estimated
Sun 06:39:00 AM -2.5136 -56.2919 82° East  Level Estimated
Sun 06:40:00 AM -2.4975 -56.1795 82° East  Level Estimated
Sun 06:41:00 AM -2.4815 -56.0672 82° East  Level Estimated
Sun 06:42:00 AM -2.4655 -55.9548 82° East  Level Estimated
Sun 06:43:00 AM -2.4494 -55.8424 82° East  Level Estimated
Sun 06:44:00 AM -2.4334 -55.7300 82° East  Level Estimated
Sun 06:45:00 AM -2.4173 -55.6176 82° East  Level Estimated
Sun 06:46:00 AM -2.4012 -55.5053 82° East  Level Estimated
Sun 06:47:00 AM -2.3851 -55.3929 82° East  Level Estimated
Sun 06:48:00 AM -2.3690 -55.2805 82° East  Level Estimated
Sun 06:49:00 AM -2.3529 -55.1682 82° East  Level Estimated
Sun 06:50:00 AM -2.3368 -55.0558 82° East  Level Estimated
Sun 06:51:00 AM -2.3207 -54.9435 82° East  Level Estimated
Sun 06:52:00 AM -2.3046 -54.8311 82° East  Level Estimated
Sun 06:53:00 AM -2.2884 -54.7188 82° East  Level Estimated
Sun 06:54:00 AM -2.2723 -54.6064 82° East  Level Estimated
Sun 06:55:00 AM -2.2561 -54.4941 82° East  Level Estimated
Sun 06:56:00 AM -2.2400 -54.3817 82° East  Level Estimated
Sun 06:57:00 AM -2.2238 -54.2694 82° East  Level Estimated
Sun 06:58:00 AM -2.2076 -54.1571 82° East  Level Estimated
Sun 06:59:00 AM -2.1914 -54.0447 82° East  Level Estimated
Sun 07:00:00 AM -2.1752 -53.9324 82° East  Level Estimated
Sun 07:01:00 AM -2.1590 -53.8200 82° East  Level Estimated
Sun 07:02:00 AM -2.1428 -53.7077 82° East  Level Estimated
Sun 07:03:00 AM -2.1266 -53.5954 82° East  Level Estimated
Sun 07:04:00 AM -2.1104 -53.4831 82° East  Level Estimated
Sun 07:05:00 AM -2.0941 -53.3708 82° East  Level Estimated
Sun 07:06:00 AM -2.0779 -53.2584 82° East  Level Estimated
Sun 07:07:00 AM -2.0616 -53.1461 82° East  Level Estimated
Sun 07:08:00 AM -2.0454 -53.0338 82° East  Level Estimated
Sun 07:09:00 AM -2.0291 -52.9215 82° East  Level Estimated
Sun 07:10:00 AM -2.0128 -52.8092 82° East  Level Estimated
Sun 07:11:00 AM -1.9965 -52.6969 82° East  Level Estimated
Sun 07:12:00 AM -1.9802 -52.5845 82° East  Level Estimated
Sun 07:13:00 AM -1.9639 -52.4723 82° East  Level Estimated
Sun 07:14:00 AM -1.9476 -52.3600 82° East  Level Estimated
Sun 07:15:00 AM -1.9313 -52.2477 82° East  Level Estimated
Sun 07:16:00 AM -1.9150 -52.1353 82° East  Level Estimated
Sun 07:17:00 AM -1.8986 -52.0230 82° East  Level Estimated
Sun 07:18:00 AM -1.8823 -51.9108 82° East  Level Estimated
Sun 07:19:00 AM -1.8659 -51.7985 82° East  Level Estimated
Sun 07:20:00 AM -1.8496 -51.6862 82° East  Level Estimated
Sun 07:21:00 AM -1.8332 -51.5739 82° East  Level Estimated
Sun 07:22:00 AM -1.8169 -51.4616 82° East  Level Estimated
Sun 07:23:00 AM -1.8005 -51.3493 82° East  Level Estimated
Sun 07:24:00 AM -1.7841 -51.2370 82° East  Level Estimated
Sun 07:25:00 AM -1.7677 -51.1248 82° East  Level Estimated
Sun 07:26:00 AM -1.7513 -51.0125 82° East  Level Estimated
Sun 07:27:00 AM -1.7349 -50.9002 82° East  Level Estimated
Sun 07:28:00 AM -1.7185 -50.7879 82° East  Level Estimated
Sun 07:29:00 AM -1.7021 -50.6757 82° East  Level Estimated
Sun 07:30:00 AM -1.6857 -50.5634 82° East  Level Estimated
Sun 07:31:00 AM -1.6693 -50.4511 82° East  Level Estimated
Sun 07:32:00 AM -1.6528 -50.3388 82° East  Level Estimated
Sun 07:33:00 AM -1.6364 -50.2266 82° East  Level Estimated
Sun 07:34:00 AM -1.6199 -50.1143 82° East  Level Estimated
Sun 07:35:00 AM -1.6035 -50.0021 82° East  Level Estimated
Sun 07:36:00 AM -1.5870 -49.8898 82° East  Level Estimated
Sun 07:37:00 AM -1.5706 -49.7775 82° East  Level Estimated
Sun 07:38:00 AM -1.5541 -49.6653 82° East  Level Estimated
Sun 07:39:00 AM -1.5376 -49.5531 82° East  Level Estimated
Sun 07:40:00 AM -1.5211 -49.4408 82° East  Level Estimated
Sun 07:41:00 AM -1.5046 -49.3285 82° East  Level Estimated
Sun 07:42:00 AM -1.4881 -49.2163 82° East  Level Estimated
Sun 07:43:00 AM -1.4716 -49.1040 82° East  Level Estimated
Sun 07:44:00 AM -1.4551 -48.9918 82° East  Level Estimated
Sun 07:45:00 AM -1.4386 -48.8796 82° East  Level Estimated
Sun 07:46:00 AM -1.4221 -48.7673 82° East  Level Estimated
Sun 07:47:00 AM -1.4056 -48.6551 82° East  Level Estimated
Sun 07:48:00 AM -1.3891 -48.5429 82° East  Level Estimated
Sun 07:49:00 AM -1.3793 -48.4763 82° East  Level Estimated
Sun 07:50:00 AM -1.3793 -48.4763 270° West  Level Estimated
Sun 07:51:00 AM -1.3793 -48.4763 270° West  Level Estimated
Sun 07:52:00 AM -1.3793 -48.4763 270° West  Level Estimated
Sun 07:53:00 AM -1.3793 -48.4763 270° West  Level Estimated
Sun 07:54:00 AM -1.3793 -48.4763 270° West  Level Estimated
Sun 07:55:00 AM -1.3793 -48.4763 270° West  Level Estimated
Sun 07:56:00 AM -1.3793 -48.4763 270° West  Level Estimated
Sun 07:57:00 AM -1.3793 -48.4763 270° West  Level Estimated
Sun 07:58:00 AM -1.3793 -48.4763 270° West  Level Estimated
Sun 07:59:00 AM -1.3793 -48.4763 270° West  Level Estimated
Sun 08:00:00 AM -1.3793 -48.4763 270° West  Level Estimated

Login

Don't have an account? Register now (free) for customized features, flight alerts, and more!